Time;durP1;ratioP1;P1;durP2;ratioP2;P2;SDS_P1;SDS_P2;PMS_P1;PMS_P2;Temp;Humidity;BMP_temperature;BMP_pressure;BME280_temperature;BME280_humidity;BME280_pressure;Samples;Min_cycle;Max_cycle;Signal;HPM_P1;HPM_P2
2022/03/09 00:02:10;;;;;;;5.10;3.70;;;6.60;97.50;;;;;;5035448;28;20209;-49
2022/03/09 00:04:38;;;;;;;4.35;3.65;;;6.60;97.50;;;;;;5053139;28;20254;-50
2022/03/09 00:07:06;;;;;;;4.30;3.50;;;6.60;97.50;;;;;;5033607;28;20201;-49
2022/03/09 00:09:35;;;;;;;4.75;3.80;;;6.60;97.30;;;;;;5032781;28;20273;-48
2022/03/09 00:12:04;;;;;;;4.20;3.80;;;6.50;97.50;;;;;;5033175;28;20692;-50
2022/03/09 00:14:32;;;;;;;4.60;4.20;;;6.50;97.10;;;;;;5046345;28;20262;-50
2022/03/09 00:17:02;;;;;;;4.28;3.63;;;6.50;97.20;;;;;;5026792;28;20201;-49
2022/03/09 00:19:31;;;;;;;3.85;3.45;;;6.50;97.00;;;;;;5032856;28;20224;-48
2022/03/09 00:21:59;;;;;;;4.30;3.90;;;6.50;97.50;;;;;;5028720;28;20248;-50
2022/03/09 00:24:29;;;;;;;4.30;3.67;;;6.50;97.50;;;;;;5032150;28;20232;-48
2022/03/09 00:26:57;;;;;;;5.25;3.20;;;6.50;97.50;;;;;;5033549;28;20196;-48
2022/03/09 00:29:26;;;;;;;5.57;4.72;;;6.50;97.50;;;;;;5010305;28;20304;-49
2022/03/09 00:31:55;;;;;;;4.72;4.20;;;6.50;97.30;;;;;;5022388;28;20214;-49
2022/03/09 00:34:24;;;;;;;5.50;3.88;;;6.50;97.10;;;;;;5032240;28;20692;-48
2022/03/09 00:36:52;;;;;;;6.05;4.30;;;6.50;97.20;;;;;;5026191;28;20190;-49
2022/03/09 00:39:21;;;;;;;4.13;3.72;;;6.50;96.70;;;;;;5032973;28;20221;-49
2022/03/09 00:41:49;;;;;;;4.80;4.30;;;6.50;96.60;;;;;;5033320;28;20259;-50
2022/03/09 00:44:18;;;;;;;5.30;4.70;;;6.50;96.40;;;;;;5029520;28;20221;-49
2022/03/09 00:46:47;;;;;;;5.55;4.47;;;6.50;96.40;;;;;;5021096;28;20204;-48
2022/03/09 00:49:16;;;;;;;5.15;3.92;;;6.50;96.50;;;;;;5037757;28;20223;-48
2022/03/09 00:51:45;;;;;;;5.60;4.82;;;6.50;96.80;;;;;;5038094;28;20236;-50
2022/03/09 00:54:13;;;;;;;5.03;4.30;;;6.50;96.70;;;;;;5031935;28;20592;-48
2022/03/09 00:56:42;;;;;;;5.82;4.65;;;6.50;96.50;;;;;;5033288;28;20538;-49
2022/03/09 00:59:10;;;;;;;5.28;4.40;;;6.50;96.70;;;;;;5023951;28;20585;-49
2022/03/09 01:01:40;;;;;;;4.53;4.13;;;6.50;96.80;;;;;;5032256;28;20209;-48
2022/03/09 01:04:09;;;;;;;6.47;5.05;;;6.50;96.90;;;;;;5048861;28;20228;-50
2022/03/09 01:06:37;;;;;;;5.97;4.28;;;6.40;96.40;;;;;;5028348;28;20731;-50
2022/03/09 01:09:06;;;;;;;5.25;3.70;;;6.40;96.40;;;;;;5032258;28;20224;-50
2022/03/09 01:11:35;;;;;;;6.57;4.20;;;6.40;96.80;;;;;;5052556;28;20208;-50
2022/03/09 01:14:03;;;;;;;4.18;3.70;;;6.40;96.90;;;;;;5051378;28;20221;-50
2022/03/09 01:16:31;;;;;;;5.95;4.40;;;6.40;96.90;;;;;;5028663;28;20266;-50
2022/03/09 01:18:59;;;;;;;4.63;3.75;;;6.40;97.00;;;;;;5032516;28;20220;-50
2022/03/09 01:21:27;;;;;;;4.18;3.22;;;6.40;96.90;;;;;;5033099;28;20267;-50
2022/03/09 01:23:57;;;;;;;5.75;4.10;;;6.40;97.10;;;;;;5031960;28;20316;-49
2022/03/09 01:26:27;;;;;;;6.25;4.60;;;6.40;96.60;;;;;;5031763;28;20185;-49
2022/03/09 01:28:55;;;;;;;6.00;3.92;;;6.40;97.10;;;;;;5031997;28;20221;-49
2022/03/09 01:31:23;;;;;;;4.63;3.95;;;6.40;97.10;;;;;;5021658;28;20756;-49
2022/03/09 01:33:53;;;;;;;5.43;4.05;;;6.40;96.90;;;;;;5032106;28;20227;-49
2022/03/09 01:36:21;;;;;;;4.63;3.75;;;6.40;96.90;;;;;;5031543;28;20197;-50
2022/03/09 01:38:52;;;;;;;4.53;3.50;;;6.40;97.00;;;;;;5031438;28;20232;-50
2022/03/09 01:41:20;;;;;;;4.50;3.72;;;6.40;97.20;;;;;;5031853;28;20232;-50
2022/03/09 01:44:11;;;;;;;4.05;3.65;;;6.40;97.10;;;;;;5028626;28;20251;-50
2022/03/09 01:46:40;;;;;;;5.25;3.42;;;6.40;96.90;;;;;;5020149;28;20708;-49
2022/03/09 01:49:10;;;;;;;4.57;4.15;;;6.40;96.90;;;;;;5031123;28;20227;-48
2022/03/09 01:51:41;;;;;;;3.78;3.38;;;6.40;97.20;;;;;;5027565;28;20225;-48
2022/03/09 01:54:10;;;;;;;4.00;3.15;;;6.40;97.20;;;;;;5030886;28;20597;-49
2022/03/09 01:56:39;;;;;;;4.53;4.00;;;6.40;97.30;;;;;;5044319;28;20193;-50
2022/03/09 01:59:10;;;;;;;4.35;3.78;;;6.40;97.40;;;;;;5028867;28;20236;-49
2022/03/09 02:01:39;;;;;;;4.75;3.50;;;6.40;97.20;;;;;;5019138;28;20209;-49
2022/03/09 02:04:08;;;;;;;3.95;3.20;;;6.40;97.40;;;;;;5024355;28;20278;-49
2022/03/09 02:06:39;;;;;;;3.63;3.22;;;6.40;97.40;;;;;;5020719;28;20265;-50
2022/03/09 02:11:56;;;;;;;5.05;3.15;;;6.40;96.90;;;;;;5030722;28;20244;-49
2022/03/09 02:14:31;;;;;;;4.82;4.32;;;6.40;97.40;;;;;;5022570;28;20255;-48
2022/03/09 02:17:04;;;;;;;5.53;4.30;;;6.40;97.40;;;;;;5023202;28;20201;-49
2022/03/09 02:19:32;;;;;;;4.82;4.35;;;6.40;97.40;;;;;;5030641;28;20299;-48
2022/03/09 02:22:06;;;;;;;4.10;3.70;;;6.40;97.40;;;;;;5007861;28;20208;-48
2022/03/09 02:24:35;;;;;;;4.00;3.70;;;6.40;97.40;;;;;;5036137;28;20240;-48
2022/03/09 02:27:04;;;;;;;3.75;3.40;;;6.40;97.40;;;;;;5050648;28;20192;-48
2022/03/09 02:29:34;;;;;;;3.80;3.45;;;6.40;97.50;;;;;;5028186;28;20225;-49
2022/03/09 02:32:02;;;;;;;4.00;3.60;;;6.40;97.40;;;;;;5030941;28;20737;-49
2022/03/09 02:34:31;;;;;;;4.25;3.85;;;6.40;97.40;;;;;;5029489;28;20299;-49
2022/03/09 02:36:59;;;;;;;2.67;2.47;;;6.40;97.40;;;;;;5029590;28;20612;-49
2022/03/09 02:39:28;;;;;;;3.50;3.20;;;6.40;97.40;;;;;;5030146;28;20213;-48
2022/03/09 02:41:57;;;;;;;4.18;3.20;;;6.40;97.40;;;;;;5030658;28;20219;-48
2022/03/09 02:44:27;;;;;;;4.05;3.45;;;6.40;97.50;;;;;;5036478;28;20303;-48
2022/03/09 02:46:56;;;;;;;3.90;3.20;;;6.40;97.50;;;;;;5030011;28;20236;-49
2022/03/09 02:49:24;;;;;;;3.70;3.03;;;6.40;97.40;;;;;;5029619;28;20248;-48
2022/03/09 02:51:52;;;;;;;4.72;3.42;;;6.40;97.40;;;;;;5026483;28;20664;-48
2022/03/09 02:54:20;;;;;;;4.40;3.45;;;6.40;97.40;;;;;;5029401;28;20212;-49
2022/03/09 02:56:49;;;;;;;3.67;2.88;;;6.30;97.40;;;;;;5030355;28;20537;-48
2022/03/09 02:59:19;;;;;;;3.95;3.55;;;6.40;97.40;;;;;;5029962;28;20252;-49
2022/03/09 03:01:47;;;;;;;3.83;3.10;;;6.40;97.40;;;;;;5028523;28;20248;-49
2022/03/09 03:04:15;;;;;;;4.82;3.67;;;6.30;97.20;;;;;;5034248;28;20248;-48
2022/03/09 03:06:45;;;;;;;4.50;3.55;;;6.30;97.00;;;;;;5022713;28;20189;-49
2022/03/09 03:09:16;;;;;;;4.93;3.55;;;6.30;96.90;;;;;;5046338;28;20248;-49
2022/03/09 03:11:46;;;;;;;5.38;3.55;;;6.30;96.90;;;;;;5067540;22;20242;-57
2022/03/09 03:14:14;;;;;;;3.83;3.53;;;6.30;97.10;;;;;;5068517;28;20246;-55
2022/03/09 03:16:44;;;;;;;5.10;3.90;;;6.30;96.90;;;;;;5069668;28;20655;-56
2022/03/09 03:19:12;;;;;;;4.95;3.60;;;6.30;96.90;;;;;;5067342;28;20764;-56
2022/03/09 03:21:40;;;;;;;5.57;3.83;;;6.30;96.90;;;;;;5066580;28;20635;-55
2022/03/09 03:24:08;;;;;;;4.07;3.70;;;6.30;96.80;;;;;;5069337;28;20314;-55
2022/03/09 03:26:37;;;;;;;4.15;3.00;;;6.30;97.10;;;;;;5069751;28;20237;-54
2022/03/09 03:29:05;;;;;;;3.40;3.10;;;6.20;97.30;;;;;;5067384;28;20212;-56
2022/03/09 03:31:33;;;;;;;4.15;3.33;;;6.30;97.30;;;;;;5069417;28;20261;-54
2022/03/09 03:34:03;;;;;;;4.05;3.25;;;6.30;97.40;;;;;;5069357;28;20219;-55
2022/03/09 03:36:31;;;;;;;4.72;3.95;;;6.20;97.20;;;;;;5066506;28;20192;-56
2022/03/09 03:38:59;;;;;;;4.63;3.20;;;6.30;97.40;;;;;;5069838;28;20212;-55
2022/03/09 03:41:27;;;;;;;3.53;3.22;;;6.20;97.30;;;;;;5069588;28;20277;-56
2022/03/09 03:43:56;;;;;;;3.85;3.50;;;6.20;97.10;;;;;;5068639;28;20222;-55
2022/03/09 03:46:24;;;;;;;3.28;2.97;;;6.20;97.10;;;;;;5068476;28;20286;-54
2022/03/09 03:48:52;;;;;;;4.75;4.30;;;6.20;97.50;;;;;;5069288;28;20265;-53
2022/03/09 03:51:22;;;;;;;3.92;3.53;;;6.20;96.90;;;;;;5065910;28;20215;-56
2022/03/09 03:53:50;;;;;;;4.28;3.88;;;6.20;97.00;;;;;;5069837;28;20246;-55
2022/03/09 03:56:19;;;;;;;3.72;3.35;;;6.20;96.80;;;;;;5051371;28;20191;-55
2022/03/09 03:58:47;;;;;;;5.28;4.25;;;6.20;96.90;;;;;;5067763;28;20307;-55
2022/03/09 04:01:15;;;;;;;4.82;3.67;;;6.20;96.50;;;;;;5044805;28;20300;-55
2022/03/09 04:03:44;;;;;;;4.78;3.90;;;6.20;96.40;;;;;;5049759;28;20200;-56
2022/03/09 04:06:12;;;;;;;3.95;3.38;;;6.20;96.90;;;;;;5060108;28;20258;-53
2022/03/09 04:08:44;;;;;;;3.50;3.15;;;6.20;97.20;;;;;;5068215;28;20557;-55
2022/03/09 04:11:13;;;;;;;3.03;2.72;;;6.20;97.30;;;;;;5069823;28;20227;-53
2022/03/09 04:13:42;;;;;;;4.85;3.70;;;6.20;97.30;;;;;;5060634;28;20713;-53
2022/03/09 04:16:11;;;;;;;3.75;3.40;;;6.20;97.10;;;;;;5066681;28;20212;-57
2022/03/09 04:18:39;;;;;;;3.85;3.42;;;6.20;96.80;;;;;;5069639;28;20237;-56
2022/03/09 04:21:08;;;;;;;4.15;3.60;;;6.20;96.70;;;;;;5068455;28;20194;-54
2022/03/09 04:23:36;;;;;;;4.32;3.92;;;6.10;96.40;;;;;;5072734;28;20194;-54
2022/03/09 04:26:10;;;;;;;5.15;3.85;;;6.10;96.50;;;;;;5072177;28;20203;-56
2022/03/09 04:28:38;;;;;;;6.38;3.72;;;6.10;96.40;;;;;;5066963;28;20195;-55
2022/03/09 04:31:07;;;;;;;3.33;3.03;;;6.10;96.40;;;;;;5070655;28;20188;-55
2022/03/09 04:33:37;;;;;;;3.60;3.30;;;6.10;96.80;;;;;;5072569;28;20198;-53
2022/03/09 04:36:09;;;;;;;3.40;3.10;;;6.10;96.70;;;;;;5064357;28;20204;-54
2022/03/09 04:38:40;;;;;;;4.60;3.72;;;6.10;96.60;;;;;;5065302;28;20200;-53
2022/03/09 04:41:11;;;;;;;5.35;3.85;;;6.10;96.60;;;;;;5072794;28;20606;-57
2022/03/09 04:43:40;;;;;;;4.18;3.63;;;6.10;96.50;;;;;;5070119;28;20629;-54
2022/03/09 04:46:08;;;;;;;3.92;3.63;;;6.10;96.20;;;;;;5040646;28;20590;-56
2022/03/09 04:48:37;;;;;;;4.45;3.72;;;6.10;96.50;;;;;;5072414;28;20219;-54
2022/03/09 04:51:06;;;;;;;5.07;3.45;;;6.10;96.50;;;;;;5071195;28;20207;-56
2022/03/09 04:53:35;;;;;;;4.20;3.33;;;6.00;96.10;;;;;;5072855;28;20200;-56
2022/03/09 04:56:03;;;;;;;4.20;3.78;;;6.00;96.40;;;;;;5072301;28;20609;-55
2022/03/09 04:58:34;;;;;;;4.03;3.33;;;6.00;96.10;;;;;;5072122;28;20196;-54
2022/03/09 05:01:02;;;;;;;3.00;2.53;;;6.00;96.10;;;;;;5063939;28;20602;-56
2022/03/09 05:03:34;;;;;;;5.93;3.65;;;6.00;96.10;;;;;;5072098;28;20191;-55
2022/03/09 05:06:05;;;;;;;4.28;3.90;;;6.00;96.10;;;;;;5067030;28;20272;-53
2022/03/09 05:08:35;;;;;;;4.75;4.05;;;6.00;95.80;;;;;;5071816;28;20238;-56
2022/03/09 05:11:03;;;;;;;4.95;4.40;;;6.00;95.80;;;;;;5072037;28;20246;-55
2022/03/09 05:13:35;;;;;;;3.95;3.55;;;6.00;95.20;;;;;;5070935;28;20187;-55
2022/03/09 05:16:05;;;;;;;4.47;3.60;;;5.90;95.40;;;;;;5070024;28;20184;-55
2022/03/09 05:18:40;;;;;;;4.40;4.00;;;5.90;96.10;;;;;;5072683;28;20279;-56
2022/03/09 05:21:11;;;;;;;3.95;3.60;;;5.90;96.70;;;;;;5066581;28;20203;-53
2022/03/09 05:23:40;;;;;;;5.43;3.92;;;5.90;95.80;;;;;;5071931;28;20204;-55
2022/03/09 05:26:09;;;;;;;4.70;4.00;;;5.90;95.40;;;;;;5070868;28;20238;-55
2022/03/09 05:28:41;;;;;;;3.75;3.45;;;5.90;96.10;;;;;;5072376;28;20188;-56
2022/03/09 05:31:09;;;;;;;5.20;4.40;;;5.90;96.60;;;;;;5060940;28;20944;-54
2022/03/09 05:33:40;;;;;;;3.97;3.67;;;5.90;96.10;;;;;;5071189;28;20249;-55
2022/03/09 05:36:08;;;;;;;4.60;3.42;;;5.90;96.50;;;;;;5065832;28;20234;-55
2022/03/09 05:38:37;;;;;;;4.32;3.47;;;5.90;96.60;;;;;;5071600;28;20215;-55
2022/03/09 05:41:05;;;;;;;4.88;3.28;;;5.90;96.50;;;;;;5060628;28;20306;-55
2022/03/09 05:43:34;;;;;;;4.55;4.05;;;5.90;96.30;;;;;;5071053;28;20241;-54
2022/03/09 05:46:04;;;;;;;5.63;4.18;;;5.90;95.90;;;;;;5051014;28;20215;-53
2022/03/09 05:48:33;;;;;;;6.03;4.47;;;5.90;96.00;;;;;;5065134;28;20568;-54
2022/03/09 05:51:02;;;;;;;7.07;4.13;;;5.90;95.60;;;;;;5063938;28;20185;-57
2022/03/09 05:53:30;;;;;;;4.53;4.13;;;5.90;95.80;;;;;;5052005;28;20196;-55
2022/03/09 05:55:58;;;;;;;4.20;3.80;;;5.90;95.40;;;;;;5055612;28;20194;-55
2022/03/09 05:58:27;;;;;;;4.60;3.95;;;5.90;95.60;;;;;;5066257;28;20195;-56
2022/03/09 06:00:56;;;;;;;4.35;3.80;;;5.80;95.40;;;;;;5059082;28;20227;-54
2022/03/09 06:03:26;;;;;;;5.72;4.43;;;5.80;95.60;;;;;;5061028;28;20196;-56
2022/03/09 06:05:54;;;;;;;6.47;4.60;;;5.80;95.30;;;;;;5064462;28;20588;-54
2022/03/09 06:08:22;;;;;;;4.03;3.53;;;5.80;95.20;;;;;;5071040;28;20191;-55
2022/03/09 06:10:53;;;;;;;4.32;3.70;;;5.80;95.20;;;;;;5070754;28;20265;-55
2022/03/09 06:13:21;;;;;;;5.00;3.30;;;5.80;94.70;;;;;;5051746;28;20227;-53
2022/03/09 06:15:51;;;;;;;5.25;3.65;;;5.80;95.30;;;;;;5069990;28;20203;-55
2022/03/09 06:18:20;;;;;;;3.47;3.08;;;5.80;95.70;;;;;;5062976;28;20262;-56
2022/03/09 06:20:50;;;;;;;4.05;3.08;;;5.80;96.20;;;;;;5063465;28;20235;-55
2022/03/09 06:23:19;;;;;;;3.22;2.90;;;5.80;96.30;;;;;;5070011;28;20188;-54
2022/03/09 06:25:47;;;;;;;3.38;3.08;;;5.80;96.10;;;;;;5051136;28;20212;-53
2022/03/09 06:28:17;;;;;;;6.93;4.88;;;5.80;96.20;;;;;;5051307;28;20195;-54
2022/03/09 06:30:46;;;;;;;6.38;3.80;;;5.80;95.80;;;;;;5050036;28;20580;-53
2022/03/09 06:33:15;;;;;;;4.97;4.22;;;5.80;96.00;;;;;;5060410;28;20208;-57
2022/03/09 06:35:43;;;;;;;3.92;3.63;;;5.80;95.40;;;;;;5064945;28;20204;-53
2022/03/09 06:38:14;;;;;;;5.30;3.97;;;5.80;95.20;;;;;;5059350;28;20210;-52
2022/03/09 06:40:44;;;;;;;4.75;4.22;;;5.80;95.20;;;;;;5070392;28;20258;-55
2022/03/09 06:43:12;;;;;;;4.28;3.70;;;5.70;95.40;;;;;;5070210;28;20215;-54
2022/03/09 06:45:42;;;;;;;5.70;3.90;;;5.70;95.00;;;;;;5045709;28;20216;-56
2022/03/09 06:48:13;;;;;;;5.65;4.28;;;5.70;95.20;;;;;;5063334;28;20198;-55
2022/03/09 06:50:43;;;;;;;5.93;4.50;;;5.70;95.50;;;;;;5065218;28;20212;-54
2022/03/09 06:53:15;;;;;;;3.72;3.42;;;5.70;95.00;;;;;;5062615;28;20220;-54
2022/03/09 06:55:50;;;;;;;5.07;4.43;;;5.70;95.00;;;;;;5069710;28;20219;-56
2022/03/09 06:58:19;;;;;;;5.15;4.65;;;5.70;95.10;;;;;;5068950;28;20650;-54
2022/03/09 07:00:47;;;;;;;5.30;4.13;;;5.70;95.50;;;;;;5069357;28;20296;-53
2022/03/09 07:03:16;;;;;;;4.20;3.33;;;5.70;95.10;;;;;;5070514;28;20288;-54
2022/03/09 07:05:45;;;;;;;6.88;4.50;;;5.70;95.30;;;;;;5068041;28;20255;-55
2022/03/09 07:08:15;;;;;;;5.90;4.30;;;5.60;95.20;;;;;;5070856;28;20199;-54
2022/03/09 07:10:43;;;;;;;6.15;4.55;;;5.60;95.60;;;;;;5068575;28;20251;-55
2022/03/09 07:13:12;;;;;;;8.23;4.25;;;5.70;95.80;;;;;;5066113;28;20696;-54
2022/03/09 07:15:40;;;;;;;6.78;5.00;;;5.60;95.30;;;;;;5050046;28;20282;-52
2022/03/09 07:18:09;;;;;;;6.60;5.43;;;5.60;94.80;;;;;;5070398;28;20187;-54
2022/03/09 07:20:40;;;;;;;6.53;5.20;;;5.60;94.90;;;;;;5064732;28;20216;-54
2022/03/09 07:23:09;;;;;;;5.13;4.60;;;5.60;94.90;;;;;;5051105;28;20227;-54
2022/03/09 07:25:40;;;;;;;5.47;3.92;;;5.60;95.20;;;;;;5062111;28;20277;-55
2022/03/09 07:28:11;;;;;;;6.30;4.85;;;5.60;95.50;;;;;;5070462;28;20695;-56
2022/03/09 07:30:39;;;;;;;8.70;5.22;;;5.60;94.90;;;;;;5064761;28;20720;-53
2022/03/09 07:33:15;;;;;;;5.82;4.20;;;5.60;95.00;;;;;;5050905;28;20536;-54
2022/03/09 07:35:45;;;;;;;5.18;4.65;;;5.60;95.30;;;;;;5060954;28;20211;-53
2022/03/09 07:38:14;;;;;;;6.70;4.60;;;5.60;95.10;;;;;;5068144;28;20555;-52
2022/03/09 07:40:46;;;;;;;7.05;4.95;;;5.60;95.20;;;;;;5070743;28;20224;-53
2022/03/09 07:43:15;;;;;;;4.07;3.67;;;5.60;95.20;;;;;;5050519;28;20203;-55
2022/03/09 07:45:47;;;;;;;4.63;4.18;;;5.60;95.20;;;;;;5049426;28;20584;-56
2022/03/09 07:48:16;;;;;;;6.18;4.50;;;5.60;95.00;;;;;;5065179;28;20692;-55
2022/03/09 07:50:47;;;;;;;4.32;3.75;;;5.60;95.40;;;;;;5053524;28;20284;-53
2022/03/09 07:53:15;;;;;;;6.63;4.65;;;5.70;95.80;;;;;;5070094;28;20281;-55
2022/03/09 07:55:46;;;;;;;5.85;3.58;;;5.70;95.40;;;;;;5072054;28;20215;-56
2022/03/09 07:58:16;;;;;;;4.43;3.63;;;5.70;95.40;;;;;;5072672;28;20192;-57
2022/03/09 08:00:45;;;;;;;5.22;4.20;;;5.70;95.40;;;;;;5071862;28;20237;-53
2022/03/09 08:03:15;;;;;;;6.10;3.55;;;5.80;95.50;;;;;;5074091;28;20212;-54
2022/03/09 08:05:58;;;;;;;5.05;3.47;;;5.80;95.70;;;;;;5066005;28;20281;-53
2022/03/09 08:08:26;;;;;;;5.18;3.65;;;5.80;95.80;;;;;;5053962;28;20247;-53
2022/03/09 08:10:56;;;;;;;4.88;3.70;;;5.80;96.00;;;;;;5061310;28;20304;-57
2022/03/09 08:13:26;;;;;;;6.03;4.32;;;5.80;95.90;;;;;;5060957;28;20195;-56
2022/03/09 08:15:54;;;;;;;4.60;4.20;;;5.80;95.80;;;;;;5055083;28;20211;-54
2022/03/09 08:18:25;;;;;;;5.88;4.05;;;5.90;96.10;;;;;;5066235;28;20190;-54
2022/03/09 08:20:55;;;;;;;4.85;3.65;;;5.90;96.00;;;;;;5065698;28;20238;-54
2022/03/09 08:23:24;;;;;;;4.40;3.28;;;5.90;96.10;;;;;;5071379;28;20614;-54
2022/03/09 08:25:54;;;;;;;4.03;3.28;;;5.90;96.20;;;;;;5070482;28;20242;-56
2022/03/09 08:28:23;;;;;;;4.80;3.83;;;5.90;96.30;;;;;;5073607;28;20222;-56
2022/03/09 08:30:54;;;;;;;4.05;3.65;;;5.90;96.40;;;;;;5062888;28;20228;-54
2022/03/09 08:33:23;;;;;;;3.75;3.40;;;5.90;96.30;;;;;;5053541;28;20711;-55
2022/03/09 08:35:53;;;;;;;4.15;3.45;;;5.90;96.40;;;;;;5070997;28;20212;-55
2022/03/09 08:38:22;;;;;;;4.28;3.75;;;5.90;96.40;;;;;;5073203;28;20184;-55
2022/03/09 08:40:50;;;;;;;4.60;3.90;;;5.90;96.40;;;;;;5072321;28;20212;-54
2022/03/09 08:43:19;;;;;;;6.20;4.63;;;5.90;96.20;;;;;;5071926;28;20425;-56
2022/03/09 08:45:49;;;;;;;3.65;3.03;;;6.00;96.20;;;;;;5061387;28;20609;-55
2022/03/09 08:48:20;;;;;;;5.45;3.97;;;6.00;96.20;;;;;;5072928;28;20439;-55
2022/03/09 08:50:49;;;;;;;4.55;4.03;;;6.00;96.30;;;;;;5070669;28;20303;-54
2022/03/09 08:53:23;;;;;;;4.40;3.95;;;6.00;96.10;;;;;;5073330;28;20471;-54
2022/03/09 08:55:51;;;;;;;3.80;3.50;;;6.00;96.20;;;;;;5060532;28;20235;-55
2022/03/09 08:58:22;;;;;;;7.78;4.22;;;6.00;96.10;;;;;;5072651;28;20184;-55
2022/03/09 09:00:51;;;;;;;4.30;3.90;;;6.00;96.10;;;;;;5065294;28;20216;-55
2022/03/09 09:03:20;;;;;;;6.35;4.55;;;6.00;96.10;;;;;;5067836;28;20721;-58
2022/03/09 09:05:48;;;;;;;4.50;3.67;;;6.00;96.10;;;;;;5067164;28;20240;-58
2022/03/09 09:08:17;;;;;;;4.55;3.80;;;6.00;96.60;;;;;;5065301;28;20199;-54
2022/03/09 09:10:45;;;;;;;4.07;3.67;;;6.00;96.10;;;;;;5071352;28;20211;-55
2022/03/09 09:13:14;;;;;;;5.38;3.30;;;6.00;96.10;;;;;;5069598;28;20217;-54
2022/03/09 09:15:42;;;;;;;4.28;3.88;;;6.00;96.20;;;;;;5060172;28;20274;-54
2022/03/09 09:18:12;;;;;;;5.00;3.13;;;6.00;96.20;;;;;;5072965;28;20290;-56
2022/03/09 09:20:49;;;;;;;5.50;3.85;;;6.10;96.20;;;;;;5066056;28;20272;-56
2022/03/09 09:23:19;;;;;;;5.93;4.07;;;6.00;96.10;;;;;;5072596;28;20211;-53
2022/03/09 09:25:48;;;;;;;5.55;3.92;;;6.10;96.20;;;;;;5068804;28;20223;-53
2022/03/09 09:28:18;;;;;;;7.45;5.80;;;6.10;96.20;;;;;;5071379;28;20208;-56
2022/03/09 09:30:51;;;;;;;5.93;5.22;;;6.10;94.60;;;;;;5060836;28;20599;-53
2022/03/09 09:33:25;;;;;;;7.50;5.93;;;6.10;94.60;;;;;;5072491;28;20233;-53
2022/03/09 09:35:57;;;;;;;6.43;5.28;;;6.10;94.80;;;;;;5070522;28;20556;-54
2022/03/09 09:38:27;;;;;;;8.68;5.55;;;6.10;95.00;;;;;;5054782;28;20203;-54
2022/03/09 09:40:58;;;;;;;5.70;5.07;;;6.10;95.20;;;;;;5072572;28;20579;-53
2022/03/09 09:43:30;;;;;;;8.65;5.07;;;6.10;95.30;;;;;;5072404;28;20192;-55
2022/03/09 09:45:59;;;;;;;7.38;4.82;;;6.10;95.40;;;;;;5067836;28;20281;-53
2022/03/09 09:48:30;;;;;;;5.93;5.03;;;6.10;95.50;;;;;;5071440;28;20282;-54
2022/03/09 09:51:24;;;;;;;5.72;5.13;;;6.10;95.50;;;;;;5069876;28;20231;-54
2022/03/09 09:53:54;;;;;;;6.03;5.10;;;6.10;95.70;;;;;;5070894;28;20309;-55
2022/03/09 09:56:24;;;;;;;7.10;5.53;;;6.10;95.70;;;;;;5065623;28;20192;-55
2022/03/09 09:58:53;;;;;;;6.22;4.72;;;6.10;95.80;;;;;;5050222;28;21127;-56
2022/03/09 10:01:23;;;;;;;7.10;5.00;;;6.10;95.80;;;;;;5059169;28;21558;-56
2022/03/09 10:03:54;;;;;;;6.50;5.05;;;6.10;95.90;;;;;;5070166;28;20219;-55
2022/03/09 10:06:31;;;;;;;5.60;4.55;;;6.10;95.90;;;;;;5067014;28;20206;-53
2022/03/09 10:09:07;;;;;;;6.65;5.28;;;6.10;96.00;;;;;;5069285;28;20223;-55
2022/03/09 10:11:46;;;;;;;5.45;4.68;;;6.10;96.00;;;;;;5061817;28;20310;-55
2022/03/09 10:14:17;;;;;;;5.40;4.60;;;6.10;96.10;;;;;;5064622;28;20416;-54
2022/03/09 10:17:03;;;;;;;7.40;5.25;;;6.10;96.10;;;;;;5063458;28;20192;-54
2022/03/09 10:19:35;;;;;;;5.28;4.75;;;6.10;96.10;;;;;;5068125;28;20226;-57
2022/03/09 10:22:22;;;;;;;5.43;4.93;;;6.10;96.20;;;;;;5068931;28;20690;-54
2022/03/09 10:25:22;;;;;;;5.43;4.32;;;6.10;96.20;;;;;;5068879;28;20211;-56
2022/03/09 10:27:52;;;;;;;5.85;4.20;;;6.10;96.30;;;;;;5069994;28;20559;-54
2022/03/09 10:30:22;;;;;;;5.78;5.28;;;6.10;96.20;;;;;;5067451;28;20234;-55
2022/03/09 10:32:56;;;;;;;5.28;4.78;;;6.10;96.30;;;;;;5069928;28;20216;-55
2022/03/09 10:35:42;;;;;;;6.85;5.30;;;6.10;96.30;;;;;;5067252;28;20219;-54
2022/03/09 10:38:27;;;;;;;5.78;4.82;;;6.10;96.30;;;;;;5070548;28;20186;-55
2022/03/09 10:41:00;;;;;;;8.70;5.53;;;6.10;96.30;;;;;;5069628;28;20765;-55
2022/03/09 10:43:30;;;;;;;6.78;5.75;;;6.10;96.20;;;;;;5070661;28;20716;-53
2022/03/09 10:46:04;;;;;;;6.30;4.90;;;6.10;96.20;;;;;;5066644;28;20219;-56
2022/03/09 10:48:53;;;;;;;5.78;4.45;;;6.10;96.20;;;;;;5070148;28;20207;-54
2022/03/09 10:51:32;;;;;;;6.53;5.30;;;6.10;96.30;;;;;;5050390;28;20584;-55
2022/03/09 10:54:02;;;;;;;6.78;5.20;;;6.10;96.30;;;;;;5049948;28;20219;-57
2022/03/09 10:56:30;;;;;;;5.03;4.53;;;6.10;96.40;;;;;;5051139;28;20239;-53
2022/03/09 10:59:10;;;;;;;5.32;4.82;;;6.10;96.30;;;;;;5049776;28;20243;-55
2022/03/09 11:01:39;;;;;;;5.72;4.60;;;6.10;96.30;;;;;;5067490;28;20199;-55
2022/03/09 11:04:15;;;;;;;6.95;5.03;;;6.10;96.50;;;;;;5070046;28;20227;-53
2022/03/09 11:06:49;;;;;;;6.35;4.50;;;6.10;96.40;;;;;;5057619;28;20196;-55
2022/03/09 11:09:19;;;;;;;5.38;4.88;;;6.10;96.40;;;;;;5050413;28;20595;-55
2022/03/09 11:11:49;;;;;;;7.63;4.88;;;6.10;96.40;;;;;;5068197;28;20732;-56
2022/03/09 11:14:19;;;;;;;5.15;4.57;;;6.10;96.40;;;;;;5052820;28;20216;-55
2022/03/09 11:16:48;;;;;;;5.05;4.55;;;6.10;96.50;;;;;;5063968;28;20198;-54
2022/03/09 11:19:19;;;;;;;4.65;4.25;;;6.10;96.50;;;;;;5066859;28;20225;-56
2022/03/09 11:21:49;;;;;;;6.25;4.43;;;6.10;96.30;;;;;;5068424;28;20272;-54
2022/03/09 11:24:20;;;;;;;6.13;4.63;;;6.10;96.30;;;;;;5069311;28;20212;-53
2022/03/09 11:26:51;;;;;;;7.47;5.03;;;6.10;96.30;;;;;;5070128;28;20187;-54
2022/03/09 11:29:31;;;;;;;8.15;5.40;;;6.10;96.20;;;;;;5069444;28;20219;-56
2022/03/09 11:31:59;;;;;;;5.60;4.90;;;6.10;96.80;;;;;;5067828;28;20210;-55
2022/03/09 11:34:38;;;;;;;8.73;5.28;;;6.10;96.30;;;;;;5073586;28;20591;-55
2022/03/09 11:37:10;;;;;;;5.63;4.97;;;6.10;96.30;;;;;;5073094;28;20287;-56
2022/03/09 11:39:40;;;;;;;7.50;5.57;;;6.10;96.30;;;;;;5070941;28;20249;-53
2022/03/09 11:42:37;;;;;;;5.38;4.47;;;6.20;96.40;;;;;;5069810;28;20243;-54
2022/03/09 11:45:38;;;;;;;7.10;4.88;;;6.10;96.40;;;;;;5055570;28;20637;-54
2022/03/09 11:48:09;;;;;;;7.05;5.07;;;6.10;96.50;;;;;;5057229;28;20187;-55
2022/03/09 11:51:12;;;;;;;5.88;4.18;;;6.10;96.50;;;;;;5065855;28;20222;-52
2022/03/09 11:53:47;;;;;;;5.88;4.65;;;6.10;96.60;;;;;;5071636;28;20199;-55
2022/03/09 11:56:30;;;;;;;5.78;4.80;;;6.10;96.60;;;;;;5073931;28;20697;-53
2022/03/09 11:59:18;;;;;;;6.65;5.15;;;6.10;96.70;;;;;;5065381;28;20220;-52
2022/03/09 12:02:23;;;;;;;5.93;5.03;;;6.10;96.70;;;;;;5061702;28;20294;-51
2022/03/09 12:04:53;;;;;;;7.00;5.55;;;6.10;96.60;;;;;;5068494;28;20223;-52
2022/03/09 12:07:58;;;;;;;6.20;4.75;;;6.10;96.60;;;;;;5066587;28;20188;-55
2022/03/09 12:10:44;;;;;;;6.20;4.95;;;6.10;96.70;;;;;;5064369;28;20224;-57
2022/03/09 12:13:16;;;;;;;7.55;5.28;;;6.20;96.60;;;;;;5070211;28;20699;-56
2022/03/09 12:16:07;;;;;;;7.72;4.93;;;6.20;96.70;;;;;;5071248;28;20289;-55
2022/03/09 12:18:40;;;;;;;7.20;5.30;;;6.20;96.70;;;;;;5072369;28;20242;-56
2022/03/09 12:21:10;;;;;;;7.65;5.30;;;6.20;96.80;;;;;;5063385;28;20219;-55
2022/03/09 12:24:21;;;;;;;8.48;6.18;;;6.20;96.80;;;;;;5051120;28;20192;-56
2022/03/09 12:26:54;;;;;;;8.05;5.15;;;6.10;96.80;;;;;;5018374;28;20199;-56
2022/03/09 12:29:39;;;;;;;7.18;5.15;;;6.20;96.90;;;;;;5057696;28;20726;-57
2022/03/09 12:32:14;;;;;;;7.95;6.20;;;6.20;96.90;;;;;;5065446;28;20207;-52
2022/03/09 12:34:44;;;;;;;10.68;7.05;;;6.20;96.50;;;;;;5070084;28;20593;-53
2022/03/09 12:37:14;;;;;;;10.57;6.95;;;6.20;96.20;;;;;;5065918;28;20200;-55
2022/03/09 12:39:49;;;;;;;9.80;7.18;;;6.30;96.30;;;;;;5070963;28;20284;-55
2022/03/09 12:42:20;;;;;;;12.77;7.57;;;6.30;96.30;;;;;;5072524;28;20215;-54
2022/03/09 12:44:50;;;;;;;11.77;8.02;;;6.30;96.10;;;;;;5057798;28;20254;-55
2022/03/09 12:47:20;;;;;;;9.10;7.18;;;6.30;96.10;;;;;;5072616;28;20192;-55
2022/03/09 12:49:52;;;;;;;8.93;6.70;;;6.30;96.20;;;;;;5072463;28;20698;-54
2022/03/09 12:52:22;;;;;;;11.48;8.00;;;6.30;96.30;;;;;;5056388;28;20306;-54
2022/03/09 12:54:51;;;;;;;11.57;7.60;;;6.30;96.40;;;;;;5072103;28;20227;-55
2022/03/09 12:57:23;;;;;;;7.53;5.97;;;6.30;96.50;;;;;;5069993;28;20192;-56
2022/03/09 13:00:01;;;;;;;12.30;7.47;;;6.30;96.60;;;;;;5050987;28;20215;-55
2022/03/09 13:02:40;;;;;;;19.08;10.20;;;6.30;96.60;;;;;;5069335;28;20219;-56
2022/03/09 13:05:11;;;;;;;16.55;8.52;;;6.30;95.60;;;;;;5071666;28;20227;-53
2022/03/09 13:07:55;;;;;;;10.15;7.63;;;6.30;95.50;;;;;;5068429;28;20282;-54
2022/03/09 13:10:25;;;;;;;11.77;8.82;;;6.40;95.70;;;;;;5065530;28;20220;-55
2022/03/09 13:12:56;;;;;;;14.02;8.65;;;6.40;95.90;;;;;;5067872;28;20617;-54
2022/03/09 13:15:38;;;;;;;11.35;7.45;;;6.40;95.90;;;;;;5066881;28;20224;-50
2022/03/09 13:18:11;;;;;;;12.93;8.05;;;6.40;95.90;;;;;;5069111;28;20434;-55
2022/03/09 13:20:45;;;;;;;14.50;8.75;;;6.40;95.70;;;;;;5066494;28;20221;-54